^^
Meteo Knjazevac Station Historical Data
Daily Summary for September 24, 2021 Units:  English    Metric   Both
Daily Weekly Monthly Yearly Custom
  High: Low: Average:
Temperature: 62.1 °F 55.4 °F 58.4 °F
Dew Point: 58.6 °F 54 °F 56.2 °F
Humidity: 96% 88% 92%
Wind Speed: 2mph 0mph 0.5mph
Wind Gust: 4mph - -
Wind- - West
Pressure: 30.08 in 30.07 in -
Precipitation: 0.00 in    
Historical Graphs
 
 
Tabular Data for September 24, 2021
Time Temperature Dew Point Pressure Wind Wind Speed Wind Gust Humidity Rainfall Rate (Hourly) solar Conditions
00:00 62.1 °F 58.5 °F 30.08 in Calm   1 mph 88% 0.00 in 0 W/m2
00:10 61.9 °F 58.6 °F 30.08 in Calm   1 mph 89% 0.00 in 0 W/m2
00:20 61.5 °F 58.2 °F 30.08 in Calm   1 mph 89% 0.00 in 0 W/m2
00:30 61.3 °F 58 °F 30.08 in Calm   1 mph 89% 0.00 in 0 W/m2
00:40 61 °F 57.7 °F 30.08 in Calm   1 mph 89% 0.00 in 0 W/m2
00:50 60.6 °F 57.6 °F 30.08 in Calm   1 mph 90% 0.00 in 0 W/m2
01:00 60.3 °F 57.3 °F 30.08 in Calm   1 mph 90% 0.00 in 0 W/m2
01:10 60.3 °F 57.3 °F 30.08 in Calm   2 mph 90% 0.00 in 0 W/m2
01:20 60.1 °F 57.1 °F 30.08 in Calm   2 mph 90% 0.00 in 0 W/m2
01:30 59.9 °F 57 °F 30.08 in Calm   1 mph 90% 0.00 in 0 W/m2
01:40 59.5 °F 56.9 °F 30.07 in Calm   1 mph 91% 0.00 in 0 W/m2
01:50 59.4 °F 56.7 °F 30.07 in Calm   2 mph 91% 0.00 in 0 W/m2
02:00 59 °F 56.4 °F 30.07 in Calm   1 mph 91% 0.00 in 0 W/m2
02:10 58.8 °F 56.8 °F 30.07 in Calm   1 mph 93% 0.00 in 0 W/m2
02:20 58.6 °F 56.3 °F 30.07 in Calm   1 mph 92% 0.00 in 0 W/m2
02:30 58.3 °F 56.3 °F 30.07 in West 1 mph 2 mph 93% 0.00 in 0 W/m2
02:40 57.7 °F 55.7 °F 30.08 in NW 1 mph 2 mph 93% 0.00 in 0 W/m2
02:50 57.4 °F 55.4 °F 30.08 in Calm   2 mph 93% 0.00 in 0 W/m2
03:00 57.4 °F 55.7 °F 30.08 in Calm   2 mph 94% 0.00 in 0 W/m2
03:10 57.2 °F 55.5 °F 30.08 in Calm   1 mph 94% 0.00 in 0 W/m2
03:20 56.8 °F 55.1 °F 30.08 in Calm   1 mph 94% 0.00 in 0 W/m2
03:30 56.8 °F 55.1 °F 30.08 in NNW 1 mph 2 mph 94% 0.00 in 0 W/m2
03:40 56.8 °F 55.4 °F 30.08 in West 1 mph 3 mph 95% 0.00 in 0 W/m2
03:50 56.7 °F 55.2 °F 30.07 in West 1 mph 2 mph 95% 0.00 in 0 W/m2
04:00 56.4 °F 55 °F 30.08 in WSW 1 mph 2 mph 95% 0.00 in 0 W/m2
04:10 56.1 °F 54.7 °F 30.08 in WSW 1 mph 2 mph 95% 0.00 in 0 W/m2
04:20 55.7 °F 54.3 °F 30.08 in West 2 mph 3 mph 95% 0.00 in 0 W/m2
04:30 55.4 °F 54 °F 30.08 in West 2 mph 4 mph 95% 0.00 in 0 W/m2
04:40 55.4 °F 54.3 °F 30.08 in West 2 mph 4 mph 96% 0.00 in 0 W/m2
04:50 55.6 °F 54.5 °F 30.08 in West 2 mph 3 mph 96% 0.00 in 0 W/m2
05:00 55.5 °F 54.4 °F 30.08 in West 1 mph 3 mph 96% 0.00 in 0 W/m2
Knjazevac, Serbia
Compliments of Weather Underground - 2 mb